Time;durP1;ratioP1;P1;durP2;ratioP2;P2;SDS_P1;SDS_P2;PMS_P1;PMS_P2;Temp;Humidity;BMP_temperature;BMP_pressure;BME280_temperature;BME280_humidity;BME280_pressure;Samples;Min_cycle;Max_cycle;Signal;HPM_P1;HPM_P2
2023/05/05 00:00:41;;;;;;;3.47;3.17;;;15.90;99.90;;;;;;4981331;28;20243;-70
2023/05/05 00:03:08;;;;;;;3.40;3.20;;;16.00;99.90;;;;;;4977135;28;20201;-71
2023/05/05 00:05:35;;;;;;;3.40;3.20;;;16.00;99.90;;;;;;4980354;28;20193;-71
2023/05/05 00:08:03;;;;;;;3.67;3.38;;;16.00;99.90;;;;;;4977374;28;21789;-71
2023/05/05 00:10:31;;;;;;;3.47;3.17;;;16.00;99.90;;;;;;4978932;28;20625;-71
2023/05/05 00:12:58;;;;;;;3.97;3.58;;;15.90;99.90;;;;;;4976475;28;20293;-72
2023/05/05 00:15:26;;;;;;;3.58;3.38;;;15.90;99.90;;;;;;4983430;28;20406;-72
2023/05/05 00:17:56;;;;;;;4.13;3.80;;;15.90;99.90;;;;;;4982342;28;20790;-72
2023/05/05 00:20:23;;;;;;;3.50;3.30;;;15.90;99.90;;;;;;4983862;28;20196;-71
2023/05/05 00:22:52;;;;;;;3.83;3.53;;;15.80;99.90;;;;;;4979555;28;20287;-71
2023/05/05 00:25:21;;;;;;;4.20;3.80;;;15.80;99.90;;;;;;4977497;28;20730;-71
2023/05/05 00:27:48;;;;;;;3.95;3.65;;;15.80;99.90;;;;;;4995322;28;20260;-70
2023/05/05 00:30:15;;;;;;;4.22;3.92;;;15.80;99.90;;;;;;4983564;28;20310;-71
2023/05/05 00:32:42;;;;;;;4.80;4.40;;;15.80;99.90;;;;;;4961489;28;20271;-71
2023/05/05 00:35:10;;;;;;;3.65;3.42;;;15.70;99.90;;;;;;4977706;28;20283;-71
2023/05/05 00:37:37;;;;;;;4.00;3.70;;;15.70;99.90;;;;;;4976840;28;20907;-71
2023/05/05 00:40:05;;;;;;;4.53;3.72;;;15.70;99.90;;;;;;4962174;28;20205;-71
2023/05/05 00:42:40;;;;;;;3.60;3.30;;;15.70;99.90;;;;;;4949842;28;20224;-70
2023/05/05 00:45:08;;;;;;;3.53;3.20;;;15.80;99.90;;;;;;4977725;28;20205;-71
2023/05/05 00:47:35;;;;;;;3.70;3.33;;;15.80;99.90;;;;;;4962405;28;20239;-71
2023/05/05 00:50:04;;;;;;;3.10;2.90;;;15.90;99.90;;;;;;4963050;28;20223;-71
2023/05/05 00:52:31;;;;;;;3.03;2.80;;;15.90;99.90;;;;;;4978564;28;20201;-71
2023/05/05 00:54:58;;;;;;;3.97;3.35;;;15.90;99.90;;;;;;4978781;28;20205;-72
2023/05/05 00:57:27;;;;;;;2.83;2.63;;;15.90;99.90;;;;;;4975768;28;20823;-72
2023/05/05 00:59:56;;;;;;;3.20;3.00;;;15.90;99.90;;;;;;4979461;28;20695;-72
2023/05/05 01:02:23;;;;;;;3.67;3.38;;;15.90;99.90;;;;;;4976772;28;20749;-72
2023/05/05 01:04:50;;;;;;;3.75;3.45;;;15.90;99.90;;;;;;4962340;28;20288;-71
2023/05/05 01:07:27;;;;;;;4.25;3.95;;;15.90;99.90;;;;;;4979740;28;20232;-71
2023/05/05 01:10:02;;;;;;;7.03;4.15;;;15.90;99.90;;;;;;4964492;28;20229;-72
2023/05/05 01:12:38;;;;;;;4.15;3.85;;;15.80;99.90;;;;;;4981641;28;20327;-72
2023/05/05 01:15:15;;;;;;;3.40;3.20;;;15.80;99.90;;;;;;4961464;28;20209;-71
2023/05/05 01:17:45;;;;;;;3.72;3.42;;;15.80;99.90;;;;;;4966411;28;20220;-72
2023/05/05 01:20:20;;;;;;;3.40;3.15;;;15.80;99.90;;;;;;4985166;28;20212;-72
2023/05/05 01:22:53;;;;;;;3.33;3.13;;;15.80;99.90;;;;;;4980216;28;20742;-71
2023/05/05 01:25:52;;;;;;;3.80;3.50;;;15.80;99.90;;;;;;4987627;28;20216;-71
2023/05/05 01:28:30;;;;;;;2.78;2.60;;;15.80;99.90;;;;;;4984684;28;20686;-71
2023/05/05 01:31:17;;;;;;;3.58;3.38;;;15.80;99.90;;;;;;4977637;28;20292;-71
2023/05/05 01:33:48;;;;;;;3.22;3.03;;;15.80;99.90;;;;;;4985200;28;20283;-71
2023/05/05 01:36:21;;;;;;;3.00;2.80;;;15.80;99.90;;;;;;4982783;28;20293;-71
2023/05/05 01:38:52;;;;;;;3.25;2.95;;;15.80;99.90;;;;;;4982609;28;20205;-71
2023/05/05 01:41:24;;;;;;;3.65;3.38;;;15.80;99.90;;;;;;4990077;28;21795;-71
2023/05/05 01:43:53;;;;;;;4.07;3.78;;;15.80;99.90;;;;;;4996341;28;20326;-71
2023/05/05 01:46:23;;;;;;;4.00;3.70;;;15.70;99.90;;;;;;4985398;28;20252;-71
2023/05/05 01:48:53;;;;;;;3.85;3.53;;;15.70;99.90;;;;;;4987489;28;20197;-71
2023/05/05 01:51:24;;;;;;;3.55;3.28;;;15.70;99.90;;;;;;4983103;28;20217;-71
2023/05/05 01:53:56;;;;;;;3.45;3.25;;;15.70;99.90;;;;;;4980615;28;20731;-71
2023/05/05 01:56:25;;;;;;;3.22;3.03;;;15.60;99.90;;;;;;4981194;28;20252;-71
2023/05/05 01:58:54;;;;;;;3.78;3.53;;;15.60;99.90;;;;;;4980327;28;20300;-71
2023/05/05 02:01:24;;;;;;;4.00;3.60;;;15.50;99.90;;;;;;4983373;28;20252;-71
2023/05/05 02:03:56;;;;;;;3.85;3.55;;;15.50;99.90;;;;;;4957869;28;20223;-71
2023/05/05 02:06:25;;;;;;;4.07;3.67;;;15.40;99.90;;;;;;4981364;28;20299;-71
2023/05/05 02:08:54;;;;;;;3.85;3.55;;;15.40;99.90;;;;;;4966873;28;20193;-70
2023/05/05 02:11:22;;;;;;;3.95;3.50;;;15.40;99.90;;;;;;4985100;28;20749;-71
2023/05/05 02:13:50;;;;;;;3.63;3.40;;;15.40;99.90;;;;;;4968404;28;20211;-71
2023/05/05 02:16:20;;;;;;;3.70;3.40;;;15.30;99.90;;;;;;4968414;28;20683;-71
2023/05/05 02:18:48;;;;;;;3.65;3.45;;;15.30;99.90;;;;;;4980938;28;20229;-71
2023/05/05 02:21:18;;;;;;;3.17;2.97;;;15.30;99.90;;;;;;4982443;28;20202;-71
2023/05/05 02:23:50;;;;;;;4.10;3.80;;;15.30;99.90;;;;;;4984844;28;20296;-71
2023/05/05 02:26:20;;;;;;;3.22;3.03;;;15.30;99.90;;;;;;4964319;28;20315;-71
2023/05/05 02:28:52;;;;;;;3.83;3.55;;;15.20;99.90;;;;;;4982628;28;20284;-71
2023/05/05 02:31:21;;;;;;;3.55;3.35;;;15.20;99.90;;;;;;4980753;28;20846;-71
2023/05/05 02:33:50;;;;;;;3.47;3.20;;;15.20;99.90;;;;;;4964464;28;22025;-71
2023/05/05 02:36:21;;;;;;;4.03;3.72;;;15.20;99.90;;;;;;4966864;28;20256;-71
2023/05/05 02:38:52;;;;;;;3.80;3.50;;;15.10;99.90;;;;;;4986427;28;20204;-71
2023/05/05 02:41:21;;;;;;;4.32;3.92;;;15.10;99.90;;;;;;4967952;28;20224;-72
2023/05/05 02:43:51;;;;;;;3.85;3.45;;;15.10;99.90;;;;;;4965782;28;20284;-71
2023/05/05 02:46:19;;;;;;;3.80;3.50;;;15.10;99.90;;;;;;4981529;28;20216;-70
2023/05/05 02:48:46;;;;;;;3.20;3.00;;;15.10;99.90;;;;;;4982233;28;20205;-71
2023/05/05 02:51:13;;;;;;;3.78;3.47;;;15.00;99.90;;;;;;4978959;28;20315;-71
2023/05/05 02:53:42;;;;;;;3.85;3.55;;;15.00;99.90;;;;;;4986478;28;20760;-71
2023/05/05 02:56:17;;;;;;;3.22;3.03;;;15.00;99.90;;;;;;4961259;28;20273;-71
2023/05/05 02:58:51;;;;;;;3.53;3.22;;;15.00;99.90;;;;;;4969166;28;20279;-72
2023/05/05 03:01:29;;;;;;;3.50;3.30;;;15.00;99.90;;;;;;4981734;28;20209;-71
2023/05/05 03:04:04;;;;;;;4.07;3.78;;;14.90;99.90;;;;;;4964343;28;20299;-71
2023/05/05 03:06:36;;;;;;;3.95;3.65;;;14.90;99.90;;;;;;4980434;28;20316;-70
2023/05/05 03:09:09;;;;;;;3.97;3.67;;;14.90;99.90;;;;;;4980694;28;20209;-70
2023/05/05 03:11:41;;;;;;;4.25;3.95;;;14.80;99.90;;;;;;4983108;28;20314;-71
2023/05/05 03:14:13;;;;;;;4.20;3.80;;;14.80;99.90;;;;;;4981275;28;20294;-70
2023/05/05 03:16:43;;;;;;;4.10;3.80;;;14.80;99.90;;;;;;4988031;28;20220;-71
2023/05/05 03:19:12;;;;;;;3.83;3.53;;;14.80;99.90;;;;;;4981595;28;20208;-71
2023/05/05 03:21:39;;;;;;;3.90;3.60;;;14.80;99.90;;;;;;4964752;28;20296;-72
2023/05/05 03:24:16;;;;;;;3.92;3.60;;;14.80;99.90;;;;;;4981587;28;20267;-72
2023/05/05 03:26:44;;;;;;;4.07;3.78;;;14.80;99.90;;;;;;4978818;28;20286;-72
2023/05/05 03:29:11;;;;;;;3.65;3.35;;;14.70;99.90;;;;;;4982699;28;20205;-72
2023/05/05 03:31:38;;;;;;;3.90;3.60;;;14.70;99.90;;;;;;4982518;28;20305;-71
2023/05/05 03:34:06;;;;;;;3.78;3.47;;;14.70;99.90;;;;;;4981308;28;20236;-72
2023/05/05 03:36:34;;;;;;;3.38;3.17;;;14.70;99.90;;;;;;4966274;28;20769;-72
2023/05/05 03:39:01;;;;;;;4.03;3.72;;;14.70;99.90;;;;;;4949115;28;20284;-72
2023/05/05 03:41:30;;;;;;;3.85;3.55;;;14.70;99.90;;;;;;4984583;28;20212;-71
2023/05/05 03:43:57;;;;;;;4.22;3.92;;;14.60;99.90;;;;;;4980217;28;20765;-71
2023/05/05 03:46:24;;;;;;;3.33;3.13;;;14.60;99.90;;;;;;4953439;28;20225;-71
2023/05/05 03:48:51;;;;;;;3.92;3.63;;;14.60;99.90;;;;;;4983556;28;20224;-71
2023/05/05 03:51:18;;;;;;;4.15;3.85;;;14.60;99.90;;;;;;4982491;28;20221;-71
2023/05/05 03:53:46;;;;;;;4.25;3.70;;;14.60;99.90;;;;;;4983814;28;20751;-71
2023/05/05 03:56:13;;;;;;;3.92;3.58;;;14.50;99.90;;;;;;4943278;28;20255;-71
2023/05/05 03:58:42;;;;;;;4.00;3.70;;;14.50;99.90;;;;;;4983347;28;20232;-71
2023/05/05 04:01:09;;;;;;;4.32;4.00;;;14.50;99.90;;;;;;4975831;28;20198;-70
2023/05/05 04:03:36;;;;;;;3.60;3.40;;;14.40;99.90;;;;;;4983206;28;20291;-71
2023/05/05 04:06:03;;;;;;;4.15;3.85;;;14.30;99.90;;;;;;4985042;28;20275;-71
2023/05/05 04:08:34;;;;;;;4.13;3.83;;;14.30;99.90;;;;;;4984461;28;20239;-70
2023/05/05 04:11:02;;;;;;;4.00;3.70;;;14.30;99.90;;;;;;4999479;28;20414;-69
2023/05/05 04:13:29;;;;;;;4.28;3.88;;;14.30;99.90;;;;;;4993664;28;20765;-71
2023/05/05 04:15:58;;;;;;;3.85;3.55;;;14.30;99.90;;;;;;4980235;28;20223;-70
2023/05/05 04:18:25;;;;;;;3.15;2.88;;;14.30;99.90;;;;;;4977983;28;20208;-69
2023/05/05 04:20:52;;;;;;;3.90;3.60;;;14.30;99.90;;;;;;4979071;28;20938;-71
2023/05/05 04:23:20;;;;;;;4.03;3.72;;;14.30;99.90;;;;;;4962085;28;20283;-71
2023/05/05 04:25:47;;;;;;;3.55;3.35;;;14.30;99.90;;;;;;4982239;28;20212;-70
2023/05/05 04:28:14;;;;;;;3.72;3.42;;;14.30;99.90;;;;;;4981507;28;20256;-71
2023/05/05 04:30:41;;;;;;;3.80;3.50;;;14.30;99.90;;;;;;4966800;28;20264;-69
2023/05/05 04:33:10;;;;;;;3.78;3.47;;;14.30;99.90;;;;;;4981633;28;20322;-70
2023/05/05 04:35:37;;;;;;;3.65;3.38;;;14.30;99.90;;;;;;4978963;28;20209;-70
2023/05/05 04:38:06;;;;;;;3.58;3.38;;;14.30;99.90;;;;;;4985820;28;20201;-70
2023/05/05 04:40:33;;;;;;;3.72;3.42;;;14.30;99.90;;;;;;4979516;28;20269;-69
2023/05/05 04:43:00;;;;;;;3.95;3.65;;;14.40;99.90;;;;;;4983236;28;20197;-69
2023/05/05 04:45:27;;;;;;;3.53;3.33;;;14.50;99.90;;;;;;4982308;28;20368;-70
2023/05/05 04:47:55;;;;;;;3.20;3.00;;;14.50;99.90;;;;;;4978380;28;20291;-70
2023/05/05 04:50:24;;;;;;;3.58;3.28;;;14.60;99.90;;;;;;4978866;28;20236;-70
2023/05/05 04:52:51;;;;;;;3.10;2.90;;;14.70;99.90;;;;;;4982446;28;20590;-70
2023/05/05 04:55:18;;;;;;;3.50;3.20;;;14.80;99.90;;;;;;4970672;28;20213;-70
2023/05/05 04:57:45;;;;;;;3.85;3.55;;;14.90;99.90;;;;;;4985240;28;20710;-70
2023/05/05 05:00:14;;;;;;;4.80;3.85;;;14.90;99.90;;;;;;4986280;28;20832;-70
2023/05/05 05:02:41;;;;;;;4.03;3.25;;;15.10;99.90;;;;;;4967780;28;20285;-71
2023/05/05 05:05:09;;;;;;;3.40;3.20;;;15.30;99.90;;;;;;4970882;28;20243;-71
2023/05/05 05:07:40;;;;;;;3.55;3.25;;;15.40;99.90;;;;;;4986191;28;20221;-71
2023/05/05 05:10:09;;;;;;;2.97;2.70;;;15.60;99.90;;;;;;4984064;28;20237;-71
2023/05/05 05:12:36;;;;;;;3.42;3.08;;;15.60;99.90;;;;;;4985871;28;20214;-71
2023/05/05 05:15:04;;;;;;;3.50;3.20;;;15.80;99.90;;;;;;4982040;28;20229;-70
2023/05/05 05:17:31;;;;;;;3.10;2.90;;;16.00;99.90;;;;;;4981510;28;20257;-71
2023/05/05 05:20:03;;;;;;;3.72;3.42;;;16.20;99.90;;;;;;4985078;28;20239;-70
2023/05/05 05:22:31;;;;;;;3.70;2.83;;;16.30;99.90;;;;;;4986259;28;20225;-70
2023/05/05 05:24:59;;;;;;;4.28;3.33;;;16.50;99.90;;;;;;4992758;28;20382;-69
2023/05/05 05:27:26;;;;;;;4.20;3.63;;;16.60;99.90;;;;;;4999578;28;20914;-70
2023/05/05 05:29:53;;;;;;;3.72;3.42;;;16.70;99.90;;;;;;4983300;28;20201;-71
2023/05/05 05:32:21;;;;;;;3.95;3.65;;;16.90;99.90;;;;;;4981763;28;20260;-70
2023/05/05 05:34:48;;;;;;;4.43;3.40;;;16.90;99.90;;;;;;4960158;28;20209;-71
2023/05/05 05:37:15;;;;;;;3.55;3.28;;;17.00;99.90;;;;;;4983433;28;20218;-71
2023/05/05 05:39:42;;;;;;;3.70;3.40;;;17.00;99.90;;;;;;4984259;28;20201;-70
2023/05/05 05:42:11;;;;;;;3.00;2.80;;;17.10;99.90;;;;;;4981937;28;20614;-71
2023/05/05 05:44:38;;;;;;;3.28;3.08;;;17.10;99.90;;;;;;4985298;28;20204;-70
2023/05/05 05:47:05;;;;;;;3.50;3.30;;;17.10;99.90;;;;;;4974307;28;20754;-70
2023/05/05 05:49:33;;;;;;;3.75;3.40;;;17.10;99.90;;;;;;4983811;28;20293;-70
2023/05/05 05:52:00;;;;;;;4.10;3.80;;;17.10;99.90;;;;;;4964748;28;20288;-70
2023/05/05 05:54:27;;;;;;;4.18;3.88;;;17.00;99.90;;;;;;4987256;28;20233;-70
2023/05/05 05:56:54;;;;;;;4.30;4.00;;;17.00;99.90;;;;;;4979647;28;20674;-70
2023/05/05 05:59:23;;;;;;;4.07;3.70;;;17.10;99.90;;;;;;4985050;28;20204;-70
2023/05/05 06:01:50;;;;;;;3.67;3.38;;;17.20;99.90;;;;;;4976634;28;20236;-70
2023/05/05 06:04:17;;;;;;;3.60;3.30;;;17.40;99.90;;;;;;4968048;28;20207;-70
2023/05/05 06:06:44;;;;;;;4.00;3.70;;;17.50;99.90;;;;;;4965865;28;20308;-71
2023/05/05 06:09:11;;;;;;;4.25;3.42;;;17.60;99.90;;;;;;4964161;28;20653;-71
2023/05/05 06:11:38;;;;;;;3.90;3.60;;;18.00;99.90;;;;;;4985883;28;20316;-71
2023/05/05 06:14:06;;;;;;;4.28;3.88;;;18.20;99.90;;;;;;4983865;28;20262;-71
2023/05/05 06:16:35;;;;;;;3.50;3.20;;;18.50;99.90;;;;;;4988888;28;20331;-72
2023/05/05 06:19:02;;;;;;;4.15;3.75;;;18.60;99.90;;;;;;4981819;28;20292;-71
2023/05/05 06:21:29;;;;;;;4.07;3.78;;;18.60;99.90;;;;;;4960213;28;20209;-72
2023/05/05 06:23:56;;;;;;;4.45;3.45;;;18.60;99.90;;;;;;4983749;28;20229;-73
2023/05/05 06:26:23;;;;;;;4.30;3.90;;;18.60;99.90;;;;;;4980615;28;20253;-72
2023/05/05 06:28:50;;;;;;;3.90;3.60;;;18.80;99.90;;;;;;4975030;28;20679;-72
2023/05/05 06:31:17;;;;;;;3.22;3.03;;;19.00;99.90;;;;;;4959161;28;20288;-72
2023/05/05 06:33:46;;;;;;;3.30;3.00;;;19.10;99.90;;;;;;4949905;28;20217;-72
2023/05/05 06:36:13;;;;;;;5.13;3.40;;;19.10;99.90;;;;;;4961089;28;20225;-72
2023/05/05 06:38:40;;;;;;;4.68;3.70;;;19.20;99.90;;;;;;4986439;28;20200;-71
2023/05/05 06:41:07;;;;;;;3.92;3.63;;;19.40;99.90;;;;;;4977482;28;20205;-72
2023/05/05 06:43:35;;;;;;;3.45;3.17;;;19.40;99.90;;;;;;4965379;28;20260;-71
2023/05/05 06:46:02;;;;;;;3.65;3.33;;;19.40;99.90;;;;;;4965466;28;20255;-71
2023/05/05 06:48:29;;;;;;;3.65;3.45;;;19.40;99.90;;;;;;4986105;28;20774;-71
2023/05/05 06:50:58;;;;;;;3.70;3.40;;;19.50;99.90;;;;;;4959946;28;20233;-71
2023/05/05 06:53:26;;;;;;;5.57;3.50;;;19.60;99.90;;;;;;4978908;28;20222;-71
2023/05/05 06:55:53;;;;;;;4.93;3.20;;;19.70;99.90;;;;;;4963219;28;20311;-71
2023/05/05 06:58:21;;;;;;;3.13;2.83;;;19.90;99.90;;;;;;4981916;28;20292;-71
2023/05/05 07:00:48;;;;;;;3.78;3.33;;;19.90;99.90;;;;;;4984221;28;20207;-71
2023/05/05 07:03:15;;;;;;;4.70;2.67;;;19.90;99.90;;;;;;4979703;28;20209;-72
2023/05/05 07:05:43;;;;;;;4.75;3.45;;;19.90;99.90;;;;;;4985149;28;20196;-71
2023/05/05 07:08:12;;;;;;;2.88;2.67;;;19.90;99.90;;;;;;4979267;28;20252;-71
2023/05/05 07:10:39;;;;;;;4.30;3.38;;;19.80;99.90;;;;;;4966299;28;20233;-72
2023/05/05 07:13:07;;;;;;;3.53;2.90;;;19.80;99.90;;;;;;4958966;28;20228;-72
2023/05/05 07:15:34;;;;;;;3.50;3.20;;;19.90;99.90;;;;;;4980988;28;20228;-71
2023/05/05 07:18:01;;;;;;;4.13;2.88;;;19.90;99.90;;;;;;4977725;28;20718;-73
2023/05/05 07:20:28;;;;;;;3.10;2.60;;;19.90;99.90;;;;;;4979033;28;20232;-73
2023/05/05 07:22:55;;;;;;;3.25;3.05;;;19.90;99.90;;;;;;4981368;28;20260;-73
2023/05/05 07:25:24;;;;;;;3.13;2.92;;;19.90;99.90;;;;;;4983956;28;20204;-73
2023/05/05 07:27:51;;;;;;;3.80;3.05;;;19.80;99.90;;;;;;4945422;28;20890;-73
2023/05/05 07:30:19;;;;;;;4.38;2.78;;;19.90;99.90;;;;;;4960621;28;20205;-72
2023/05/05 07:32:46;;;;;;;3.38;3.05;;;20.10;99.90;;;;;;4977013;28;20360;-72
2023/05/05 07:35:13;;;;;;;3.58;3.28;;;20.30;99.90;;;;;;4982582;28;20713;-73
2023/05/05 07:37:40;;;;;;;3.42;3.13;;;20.40;99.90;;;;;;4980892;28;20243;-73
2023/05/05 07:40:08;;;;;;;3.13;2.92;;;20.60;99.90;;;;;;4979892;28;20280;-72
2023/05/05 07:42:37;;;;;;;3.28;2.97;;;20.60;99.90;;;;;;4980356;28;20732;-73
2023/05/05 07:45:06;;;;;;;3.20;3.00;;;20.60;99.90;;;;;;4978732;28;20280;-73
2023/05/05 07:47:33;;;;;;;3.00;2.80;;;20.60;99.90;;;;;;4976945;28;20460;-73
2023/05/05 07:50:00;;;;;;;3.13;2.83;;;20.80;99.90;;;;;;4977917;28;20198;-71
2023/05/05 07:52:27;;;;;;;3.72;3.40;;;21.00;99.90;;;;;;4976466;28;20656;-72
2023/05/05 07:54:55;;;;;;;3.42;3.17;;;21.00;99.90;;;;;;4983141;28;20209;-73
2023/05/05 07:57:22;;;;;;;3.33;3.03;;;20.90;99.90;;;;;;4961507;28;20231;-72
2023/05/05 07:59:50;;;;;;;3.70;3.40;;;21.00;99.90;;;;;;4980519;28;20288;-73
2023/05/05 08:02:18;;;;;;;4.03;3.63;;;21.10;99.90;;;;;;4975255;28;20202;-73
2023/05/05 08:04:45;;;;;;;3.70;3.40;;;21.00;99.90;;;;;;4977554;28;20674;-73
2023/05/05 08:07:12;;;;;;;4.53;2.90;;;21.00;99.90;;;;;;4979705;28;20226;-73
2023/05/05 08:09:40;;;;;;;4.63;2.92;;;21.00;99.90;;;;;;4978571;28;20296;-71
2023/05/05 08:12:08;;;;;;;3.20;3.00;;;21.00;99.90;;;;;;4979749;28;20208;-72
2023/05/05 08:14:36;;;;;;;3.40;3.10;;;21.20;99.90;;;;;;4965282;28;20307;-72
2023/05/05 08:17:04;;;;;;;2.80;2.60;;;21.40;99.90;;;;;;4977776;28;20256;-73
2023/05/05 08:19:31;;;;;;;3.30;3.00;;;21.60;99.90;;;;;;4961398;28;20197;-73
2023/05/05 08:21:59;;;;;;;5.93;3.05;;;21.60;99.90;;;;;;4965861;28;20212;-74
2023/05/05 08:24:26;;;;;;;3.05;2.85;;;21.60;99.90;;;;;;4961843;28;20200;-73
2023/05/05 08:26:55;;;;;;;3.75;3.08;;;21.50;99.90;;;;;;4972115;28;20257;-73
2023/05/05 08:29:22;;;;;;;3.17;2.88;;;21.40;99.90;;;;;;4981976;28;20225;-74
2023/05/05 08:31:49;;;;;;;2.78;2.58;;;21.50;99.90;;;;;;4978857;28;20833;-73
2023/05/05 08:34:18;;;;;;;3.88;3.03;;;21.60;99.90;;;;;;4982505;28;20232;-73
2023/05/05 08:36:45;;;;;;;4.18;2.88;;;21.60;99.90;;;;;;4984890;28;20293;-73
2023/05/05 08:39:12;;;;;;;3.28;2.97;;;21.90;99.90;;;;;;4980263;28;20441;-73
2023/05/05 08:41:39;;;;;;;4.00;3.25;;;22.00;99.90;;;;;;4980312;28;20277;-72
2023/05/05 08:44:08;;;;;;;4.22;3.33;;;22.00;99.90;;;;;;4982989;28;20205;-73
2023/05/05 08:46:36;;;;;;;3.10;2.90;;;21.90;99.90;;;;;;4953533;28;20324;-72
2023/05/05 08:49:08;;;;;;;3.60;2.95;;;22.00;99.90;;;;;;4981068;28;20296;-73
2023/05/05 08:51:43;;;;;;;3.25;3.05;;;22.00;99.90;;;;;;4983671;28;20206;-73
2023/05/05 08:54:15;;;;;;;3.75;3.40;;;22.20;99.90;;;;;;4984977;28;20216;-72
2023/05/05 08:56:45;;;;;;;3.45;3.00;;;22.30;99.90;;;;;;4965809;28;20221;-73
2023/05/05 08:59:14;;;;;;;4.53;3.38;;;22.40;99.90;;;;;;4981462;28;20197;-73
2023/05/05 09:01:42;;;;;;;3.22;3.00;;;22.40;99.90;;;;;;4980122;28;20194;-74
2023/05/05 09:04:10;;;;;;;3.10;2.80;;;22.40;99.90;;;;;;4967937;28;21034;-74
2023/05/05 09:06:39;;;;;;;3.72;3.42;;;22.60;99.90;;;;;;4981771;28;20225;-73
2023/05/05 09:09:08;;;;;;;4.10;3.22;;;22.70;99.90;;;;;;4994955;28;20201;-71
2023/05/05 09:11:36;;;;;;;6.30;3.45;;;22.80;99.90;;;;;;4981858;28;20231;-73
2023/05/05 09:14:03;;;;;;;4.40;3.03;;;22.70;99.90;;;;;;4961715;28;20318;-72
2023/05/05 09:16:30;;;;;;;3.20;2.90;;;22.80;99.90;;;;;;4981238;28;20272;-73
2023/05/05 09:19:04;;;;;;;3.95;3.17;;;22.90;99.90;;;;;;4966261;28;20200;-73
2023/05/05 09:21:31;;;;;;;4.00;3.60;;;23.00;99.90;;;;;;4984328;28;20204;-72
2023/05/05 09:24:08;;;;;;;4.15;3.75;;;23.10;99.90;;;;;;4980603;28;20193;-73
2023/05/05 09:26:38;;;;;;;3.65;3.25;;;23.20;99.90;;;;;;4985287;28;20838;-73
2023/05/05 09:29:06;;;;;;;3.33;3.13;;;23.10;99.90;;;;;;4979972;28;20212;-73
2023/05/05 09:31:34;;;;;;;4.47;3.50;;;23.20;99.90;;;;;;4978943;28;20235;-74
2023/05/05 09:34:03;;;;;;;3.33;3.03;;;23.50;99.90;;;;;;4971053;28;20347;-73
2023/05/05 09:36:44;;;;;;;6.65;3.20;;;23.60;99.90;;;;;;4981982;28;20276;-73
2023/05/05 09:39:12;;;;;;;5.38;3.30;;;23.60;99.90;;;;;;4979538;28;20662;-72
2023/05/05 09:41:41;;;;;;;3.30;3.00;;;23.70;99.90;;;;;;4961355;28;20206;-73
2023/05/05 09:44:08;;;;;;;6.43;3.40;;;23.70;99.90;;;;;;4979133;28;20197;-73
2023/05/05 09:46:35;;;;;;;3.30;3.00;;;23.70;99.90;;;;;;4982867;28;20279;-73
2023/05/05 09:49:14;;;;;;;3.70;3.35;;;23.70;99.90;;;;;;4977212;28;20201;-72
2023/05/05 09:51:41;;;;;;;3.72;3.28;;;23.90;99.90;;;;;;4979849;28;20354;-74
2023/05/05 09:54:08;;;;;;;3.72;3.42;;;23.80;99.90;;;;;;4984150;28;20312;-74
2023/05/05 09:56:40;;;;;;;3.08;2.78;;;23.80;99.90;;;;;;4981331;28;20237;-73
2023/05/05 09:59:11;;;;;;;4.55;3.60;;;23.90;99.90;;;;;;4978453;28;20291;-74
2023/05/05 10:01:41;;;;;;;3.33;3.05;;;23.70;99.90;;;;;;4978046;28;20294;-75
2023/05/05 10:04:08;;;;;;;4.07;3.17;;;23.60;99.90;;;;;;4966915;28;20201;-74
2023/05/05 10:06:46;;;;;;;3.58;2.97;;;23.80;99.90;;;;;;4959504;28;20235;-74
2023/05/05 10:09:13;;;;;;;10.45;3.00;;;23.90;99.90;;;;;;4962984;28;20327;-75
2023/05/05 10:11:45;;;;;;;3.80;3.08;;;24.20;99.90;;;;;;4963773;28;20449;-75
2023/05/05 10:14:14;;;;;;;3.50;3.22;;;24.50;99.90;;;;;;4979937;28;20260;-75
2023/05/05 10:16:46;;;;;;;3.20;2.90;;;24.50;99.90;;;;;;4977991;28;20230;-75
2023/05/05 10:19:17;;;;;;;5.55;2.88;;;24.70;99.90;;;;;;4974950;28;20215;-76
2023/05/05 10:21:49;;;;;;;3.13;2.90;;;24.70;99.90;;;;;;4964805;28;20283;-74
2023/05/05 10:24:23;;;;;;;3.63;2.80;;;24.70;99.90;;;;;;4989736;28;20203;-75
2023/05/05 10:26:53;;;;;;;3.08;2.88;;;24.90;99.90;;;;;;4981286;28;20311;-75
2023/05/05 10:29:31;;;;;;;3.30;2.90;;;25.00;99.90;;;;;;4976767;28;20676;-75
2023/05/05 10:32:04;;;;;;;3.92;2.72;;;24.70;99.90;;;;;;4960407;28;20198;-75
2023/05/05 10:34:39;;;;;;;3.08;2.60;;;24.50;99.90;;;;;;4979609;28;20252;-75
2023/05/05 10:37:07;;;;;;;3.80;3.50;;;24.50;99.90;;;;;;4976186;28;20232;-75
2023/05/05 10:39:37;;;;;;;3.75;3.45;;;24.40;99.90;;;;;;4978599;28;20241;-76
2023/05/05 10:42:06;;;;;;;3.25;2.90;;;24.20;99.90;;;;;;4979579;28;20207;-75
2023/05/05 10:44:35;;;;;;;3.72;3.42;;;24.10;99.90;;;;;;4960522;28;20256;-75
2023/05/05 10:47:03;;;;;;;3.20;2.80;;;24.40;99.90;;;;;;4977704;28;20217;-76
2023/05/05 10:49:40;;;;;;;3.65;2.92;;;24.80;99.90;;;;;;4977030;28;20225;-76
2023/05/05 10:52:17;;;;;;;3.75;3.45;;;25.00;99.90;;;;;;4981695;28;20834;-76
2023/05/05 10:54:50;;;;;;;2.65;2.45;;;24.80;99.90;;;;;;4976079;28;20209;-76
2023/05/05 10:57:26;;;;;;;3.10;2.90;;;24.90;99.90;;;;;;4975957;28;20253;-76
2023/05/05 10:59:53;;;;;;;3.20;2.90;;;25.10;99.90;;;;;;4978227;28;20200;-76
2023/05/05 11:02:25;;;;;;;3.35;2.83;;;25.10;99.90;;;;;;4977235;28;20225;-77
2023/05/05 11:05:16;;;;;;;3.00;2.80;;;24.90;99.90;;;;;;4976848;28;20255;-76
2023/05/05 11:07:44;;;;;;;3.45;3.15;;;25.10;99.90;;;;;;4959061;28;20656;-76
2023/05/05 11:10:13;;;;;;;3.15;2.85;;;25.20;99.90;;;;;;4958613;28;20229;-76
2023/05/05 11:13:27;;;;;;;2.60;2.40;;;25.00;99.90;;;;;;4972557;28;20293;-77
2023/05/05 11:15:56;;;;;;;7.38;2.70;;;25.20;99.90;;;;;;4975356;28;20305;-77
2023/05/05 11:18:37;;;;;;;3.55;2.83;;;25.30;99.90;;;;;;4978187;28;20236;-76
2023/05/05 11:21:17;;;;;;;2.78;2.58;;;25.30;99.90;;;;;;4975680;28;20296;-76
2023/05/05 11:23:49;;;;;;;3.53;3.22;;;25.20;99.90;;;;;;4979350;28;20867;-77
2023/05/05 11:26:18;;;;;;;3.50;3.20;;;25.00;99.90;;;;;;4975570;28;20236;-76
2023/05/05 11:29:09;;;;;;;3.78;3.47;;;25.00;99.90;;;;;;4975487;28;20664;-76
2023/05/05 11:31:36;;;;;;;3.25;2.97;;;25.10;99.90;;;;;;4977931;28;20209;-77
2023/05/05 11:34:28;;;;;;;6.63;3.00;;;25.20;99.90;;;;;;4975468;28;20224;-76
2023/05/05 11:36:58;;;;;;;3.88;2.55;;;25.50;99.90;;;;;;4978023;28;20275;-76
2023/05/05 11:39:36;;;;;;;2.20;2.10;;;25.60;99.90;;;;;;4968769;28;20204;-76
2023/05/05 11:42:24;;;;;;;2.63;2.40;;;25.80;99.90;;;;;;4975445;28;20202;-76
2023/05/05 11:44:53;;;;;;;5.82;3.00;;;26.10;99.90;;;;;;4958468;28;20616;-75
2023/05/05 11:47:31;;;;;;;2.70;2.50;;;26.20;99.90;;;;;;4976157;28;20815;-75
2023/05/05 11:49:59;;;;;;;4.35;2.20;;;26.30;99.90;;;;;;4952531;28;20233;-75
2023/05/05 11:52:27;;;;;;;2.50;2.30;;;26.40;99.90;;;;;;4977702;28;20364;-75
2023/05/05 11:54:59;;;;;;;2.22;2.00;;;26.40;99.90;;;;;;4977120;28;20229;-75
2023/05/05 11:57:30;;;;;;;5.72;2.50;;;26.50;99.90;;;;;;4961858;28;20298;-75
2023/05/05 12:00:01;;;;;;;2.55;2.35;;;26.20;99.90;;;;;;4961595;28;20758;-76
2023/05/05 12:02:30;;;;;;;3.15;2.20;;;26.20;99.90;;;;;;4958265;28;20267;-76
2023/05/05 12:04:58;;;;;;;2.60;2.10;;;26.10;99.90;;;;;;4976078;28;20776;-76
2023/05/05 12:07:26;;;;;;;2.67;2.47;;;26.20;99.90;;;;;;4974139;28;20248;-76
2023/05/05 12:09:54;;;;;;;2.17;2.00;;;26.20;99.90;;;;;;4978722;28;20232;-75
2023/05/05 12:12:21;;;;;;;1.98;1.85;;;26.20;99.90;;;;;;4974767;28;20719;-75
2023/05/05 12:14:51;;;;;;;2.30;2.10;;;26.30;99.90;;;;;;4977175;28;20263;-75
2023/05/05 12:17:21;;;;;;;3.30;2.50;;;26.50;99.90;;;;;;4976935;28;20221;-76
2023/05/05 12:19:50;;;;;;;2.28;1.92;;;26.50;99.90;;;;;;4977538;28;20369;-76
2023/05/05 12:22:22;;;;;;;2.70;2.50;;;26.70;99.90;;;;;;4975238;28;20209;-76
2023/05/05 12:24:56;;;;;;;2.05;1.83;;;26.80;99.90;;;;;;4976276;28;20794;-77
2023/05/05 12:27:24;;;;;;;2.15;1.98;;;27.00;99.90;;;;;;4958089;28;20276;-77
2023/05/05 12:29:53;;;;;;;2.08;1.98;;;27.10;99.90;;;;;;4980223;28;20197;-77
2023/05/05 12:32:23;;;;;;;2.50;2.30;;;27.20;99.90;;;;;;4944871;28;20204;-77
2023/05/05 12:34:54;;;;;;;2.30;2.10;;;27.20;99.90;;;;;;4976748;28;20940;-76
2023/05/05 12:37:22;;;;;;;3.35;2.22;;;27.20;99.90;;;;;;4959784;28;20312;-76
2023/05/05 12:39:50;;;;;;;2.60;1.98;;;27.10;99.90;;;;;;4976632;28;20287;-76
2023/05/05 12:42:18;;;;;;;1.70;1.60;;;27.20;99.90;;;;;;4978677;28;20702;-76
2023/05/05 12:44:45;;;;;;;2.92;1.58;;;27.20;99.90;;;;;;4975264;28;20649;-77
2023/05/05 12:47:13;;;;;;;2.10;1.90;;;27.30;99.90;;;;;;4976077;28;20275;-76
2023/05/05 12:49:49;;;;;;;1.98;1.88;;;27.30;99.90;;;;;;4962749;28;21382;-76
2023/05/05 12:52:17;;;;;;;1.73;1.60;;;27.10;99.90;;;;;;4975064;28;20293;-76
2023/05/05 12:54:55;;;;;;;1.50;1.40;;;26.90;99.90;;;;;;4983309;28;20273;-76
2023/05/05 12:57:22;;;;;;;1.80;1.70;;;26.90;99.90;;;;;;4976357;28;20217;-75
2023/05/05 12:59:50;;;;;;;1.50;1.40;;;27.00;99.90;;;;;;4976928;28;20228;-75